sensor_id;sensor_type;location;lat;lon;timestamp;pressure;altitude;pressure_sealevel;temperature
12007;BMP180;6062;47.294;12.182;2022-07-26T06:11:53;80727.00;;;15.60
12007;BMP180;6062;47.294;12.182;2022-07-26T06:14:19;80733.00;;;15.60
12007;BMP180;6062;47.294;12.182;2022-07-26T06:16:46;80731.00;;;15.60
12007;BMP180;6062;47.294;12.182;2022-07-26T06:19:12;80737.00;;;15.60
12007;BMP180;6062;47.294;12.182;2022-07-26T06:21:38;80736.00;;;15.60
12007;BMP180;6062;47.294;12.182;2022-07-26T06:24:04;80730.00;;;15.60
12007;BMP180;6062;47.294;12.182;2022-07-26T06:26:30;80725.00;;;15.60
12007;BMP180;6062;47.294;12.182;2022-07-26T06:28:56;80720.00;;;15.60
12007;BMP180;6062;47.294;12.182;2022-07-26T06:31:21;80723.00;;;15.50
12007;BMP180;6062;47.294;12.182;2022-07-26T06:33:47;80725.00;;;15.40
12007;BMP180;6062;47.294;12.182;2022-07-26T06:36:13;80721.00;;;15.40
12007;BMP180;6062;47.294;12.182;2022-07-26T06:38:39;80722.00;;;15.30
12007;BMP180;6062;47.294;12.182;2022-07-26T06:41:05;80716.00;;;15.20
12007;BMP180;6062;47.294;12.182;2022-07-26T06:43:31;80725.00;;;15.20
12007;BMP180;6062;47.294;12.182;2022-07-26T06:45:56;80716.00;;;15.20
12007;BMP180;6062;47.294;12.182;2022-07-26T06:48:22;80716.00;;;15.20
12007;BMP180;6062;47.294;12.182;2022-07-26T06:50:48;80714.00;;;15.30
12007;BMP180;6062;47.294;12.182;2022-07-26T06:53:13;80721.00;;;15.30
12007;BMP180;6062;47.294;12.182;2022-07-26T06:55:40;80734.00;;;15.40
12007;BMP180;6062;47.294;12.182;2022-07-26T06:58:06;80731.00;;;15.40
12007;BMP180;6062;47.294;12.182;2022-07-26T07:00:31;80723.00;;;15.50
12007;BMP180;6062;47.294;12.182;2022-07-26T07:02:57;80728.00;;;15.50
12007;BMP180;6062;47.294;12.182;2022-07-26T07:05:23;80724.00;;;15.60
12007;BMP180;6062;47.294;12.182;2022-07-26T07:07:48;80726.00;;;15.70
12007;BMP180;6062;47.294;12.182;2022-07-26T07:10:14;80721.00;;;15.70
12007;BMP180;6062;47.294;12.182;2022-07-26T07:12:40;80718.00;;;15.70
12007;BMP180;6062;47.294;12.182;2022-07-26T07:15:08;80723.00;;;15.70
12007;BMP180;6062;47.294;12.182;2022-07-26T07:17:34;80714.00;;;15.70
12007;BMP180;6062;47.294;12.182;2022-07-26T07:20:00;80717.00;;;15.80
12007;BMP180;6062;47.294;12.182;2022-07-26T07:22:25;80710.00;;;15.90
12007;BMP180;6062;47.294;12.182;2022-07-26T07:24:51;80713.00;;;16.00
12007;BMP180;6062;47.294;12.182;2022-07-26T07:27:17;80710.00;;;16.10
12007;BMP180;6062;47.294;12.182;2022-07-26T07:29:43;80702.00;;;16.20
12007;BMP180;6062;47.294;12.182;2022-07-26T07:32:09;80706.00;;;16.30
12007;BMP180;6062;47.294;12.182;2022-07-26T07:34:34;80698.00;;;16.40
12007;BMP180;6062;47.294;12.182;2022-07-26T07:37:00;80707.00;;;16.40
12007;BMP180;6062;47.294;12.182;2022-07-26T07:39:26;80716.00;;;16.40
12007;BMP180;6062;47.294;12.182;2022-07-26T07:41:52;80720.00;;;16.50
12007;BMP180;6062;47.294;12.182;2022-07-26T07:44:18;80719.00;;;16.50
12007;BMP180;6062;47.294;12.182;2022-07-26T07:46:43;80712.00;;;16.50
12007;BMP180;6062;47.294;12.182;2022-07-26T07:49:09;80700.00;;;16.50
12007;BMP180;6062;47.294;12.182;2022-07-26T07:51:35;80682.00;;;16.50
12007;BMP180;6062;47.294;12.182;2022-07-26T07:54:01;80671.00;;;16.30
12007;BMP180;6062;47.294;12.182;2022-07-26T07:56:27;80681.00;;;16.10
12007;BMP180;6062;47.294;12.182;2022-07-26T07:58:52;80684.00;;;16.00
12007;BMP180;6062;47.294;12.182;2022-07-26T08:01:18;80686.00;;;16.00
12007;BMP180;6062;47.294;12.182;2022-07-26T08:03:44;80690.00;;;16.00
12007;BMP180;6062;47.294;12.182;2022-07-26T08:06:09;80695.00;;;16.00
12007;BMP180;6062;47.294;12.182;2022-07-26T08:08:36;80696.00;;;16.00
12007;BMP180;6062;47.294;12.182;2022-07-26T08:11:03;80689.00;;;16.10
12007;BMP180;6062;47.294;12.182;2022-07-26T08:13:29;80686.00;;;16.20
12007;BMP180;6062;47.294;12.182;2022-07-26T08:15:55;80684.00;;;16.30
12007;BMP180;6062;47.294;12.182;2022-07-26T08:18:22;80688.00;;;16.30
12007;BMP180;6062;47.294;12.182;2022-07-26T08:20:50;80697.00;;;16.40
12007;BMP180;6062;47.294;12.182;2022-07-26T08:23:18;80696.00;;;16.50
12007;BMP180;6062;47.294;12.182;2022-07-26T08:25:44;80691.00;;;16.60
12007;BMP180;6062;47.294;12.182;2022-07-26T08:28:10;80696.00;;;16.70
12007;BMP180;6062;47.294;12.182;2022-07-26T08:30:35;80695.00;;;16.80
12007;BMP180;6062;47.294;12.182;2022-07-26T08:33:01;80678.00;;;17.00
12007;BMP180;6062;47.294;12.182;2022-07-26T08:35:27;80681.00;;;17.10
12007;BMP180;6062;47.294;12.182;2022-07-26T08:37:55;80686.00;;;17.30
12007;BMP180;6062;47.294;12.182;2022-07-26T08:40:21;80685.00;;;17.50
12007;BMP180;6062;47.294;12.182;2022-07-26T08:42:52;80683.00;;;17.70
12007;BMP180;6062;47.294;12.182;2022-07-26T08:45:28;80689.00;;;17.90
12007;BMP180;6062;47.294;12.182;2022-07-26T08:47:54;80690.00;;;18.10
12007;BMP180;6062;47.294;12.182;2022-07-26T08:50:20;80689.00;;;18.20
12007;BMP180;6062;47.294;12.182;2022-07-26T08:52:47;80692.00;;;18.30
12007;BMP180;6062;47.294;12.182;2022-07-26T08:55:19;80686.00;;;18.50
12007;BMP180;6062;47.294;12.182;2022-07-26T08:57:46;80694.00;;;18.70
12007;BMP180;6062;47.294;12.182;2022-07-26T09:02:52;80695.00;;;19.50
12007;BMP180;6062;47.294;12.182;2022-07-26T09:05:20;80693.00;;;20.00
12007;BMP180;6062;47.294;12.182;2022-07-26T09:07:50;80702.00;;;20.50
12007;BMP180;6062;47.294;12.182;2022-07-26T09:10:16;80689.00;;;20.90
12007;BMP180;6062;47.294;12.182;2022-07-26T09:12:42;80698.00;;;21.30
12007;BMP180;6062;47.294;12.182;2022-07-26T09:15:20;80701.00;;;21.80
12007;BMP180;6062;47.294;12.182;2022-07-26T09:17:51;80703.00;;;22.30
12007;BMP180;6062;47.294;12.182;2022-07-26T09:20:28;80711.00;;;22.80
12007;BMP180;6062;47.294;12.182;2022-07-26T09:23:14;80709.00;;;23.20
12007;BMP180;6062;47.294;12.182;2022-07-26T09:25:44;80710.00;;;23.40
12007;BMP180;6062;47.294;12.182;2022-07-26T09:28:29;80708.00;;;23.70
12007;BMP180;6062;47.294;12.182;2022-07-26T09:31:02;80707.00;;;23.80
12007;BMP180;6062;47.294;12.182;2022-07-26T09:33:47;80707.00;;;23.90
12007;BMP180;6062;47.294;12.182;2022-07-26T09:36:13;80717.00;;;24.00
12007;BMP180;6062;47.294;12.182;2022-07-26T09:38:42;80716.00;;;24.00
12007;BMP180;6062;47.294;12.182;2022-07-26T09:41:36;80715.00;;;23.70
12007;BMP180;6062;47.294;12.182;2022-07-26T09:44:05;80723.00;;;23.40
12007;BMP180;6062;47.294;12.182;2022-07-26T09:46:32;80718.00;;;23.20
12007;BMP180;6062;47.294;12.182;2022-07-26T09:49:17;80726.00;;;23.20
12007;BMP180;6062;47.294;12.182;2022-07-26T09:51:47;80723.00;;;23.20
12007;BMP180;6062;47.294;12.182;2022-07-26T09:54:32;80724.00;;;23.10
12007;BMP180;6062;47.294;12.182;2022-07-26T09:57:00;80733.00;;;22.90
12007;BMP180;6062;47.294;12.182;2022-07-26T09:59:27;80731.00;;;22.60
12007;BMP180;6062;47.294;12.182;2022-07-26T10:01:57;80740.00;;;22.40
12007;BMP180;6062;47.294;12.182;2022-07-26T10:04:23;80735.00;;;22.30
12007;BMP180;6062;47.294;12.182;2022-07-26T10:06:49;80731.00;;;22.30
12007;BMP180;6062;47.294;12.182;2022-07-26T10:09:16;80738.00;;;22.30
12007;BMP180;6062;47.294;12.182;2022-07-26T10:12:06;80728.00;;;22.40
12007;BMP180;6062;47.294;12.182;2022-07-26T10:14:44;80730.00;;;22.50
12007;BMP180;6062;47.294;12.182;2022-07-26T10:20:09;80735.00;;;22.40
12007;BMP180;6062;47.294;12.182;2022-07-26T10:22:47;80735.00;;;22.40
12007;BMP180;6062;47.294;12.182;2022-07-26T10:28:00;80742.00;;;22.60
12007;BMP180;6062;47.294;12.182;2022-07-26T10:30:27;80731.00;;;22.70
12007;BMP180;6062;47.294;12.182;2022-07-26T10:35:38;80740.00;;;22.40
12007;BMP180;6062;47.294;12.182;2022-07-26T10:38:12;80729.00;;;22.10
12007;BMP180;6062;47.294;12.182;2022-07-26T10:41:00;80733.00;;;21.80
12007;BMP180;6062;47.294;12.182;2022-07-26T10:43:27;80730.00;;;21.50
12007;BMP180;6062;47.294;12.182;2022-07-26T10:51:30;80722.00;;;20.90
12007;BMP180;6062;47.294;12.182;2022-07-26T10:54:04;80729.00;;;20.80
12007;BMP180;6062;47.294;12.182;2022-07-26T10:56:30;80723.00;;;20.80
12007;BMP180;6062;47.294;12.182;2022-07-26T10:58:56;80731.00;;;20.80
12007;BMP180;6062;47.294;12.182;2022-07-26T11:01:39;80735.00;;;20.80
12007;BMP180;6062;47.294;12.182;2022-07-26T11:04:19;80738.00;;;20.80
12007;BMP180;6062;47.294;12.182;2022-07-26T11:06:45;80745.00;;;20.80
12007;BMP180;6062;47.294;12.182;2022-07-26T11:09:12;80733.00;;;20.70
12007;BMP180;6062;47.294;12.182;2022-07-26T11:11:38;80735.00;;;20.70
12007;BMP180;6062;47.294;12.182;2022-07-26T11:14:12;80729.00;;;20.70
12007;BMP180;6062;47.294;12.182;2022-07-26T11:16:44;80723.00;;;20.80
12007;BMP180;6062;47.294;12.182;2022-07-26T11:19:22;80726.00;;;20.80
12007;BMP180;6062;47.294;12.182;2022-07-26T11:21:59;80736.00;;;20.80
12007;BMP180;6062;47.294;12.182;2022-07-26T11:24:25;80733.00;;;20.80
12007;BMP180;6062;47.294;12.182;2022-07-26T11:26:51;80734.00;;;20.70
12007;BMP180;6062;47.294;12.182;2022-07-26T11:29:37;80731.00;;;20.60
12007;BMP180;6062;47.294;12.182;2022-07-26T11:32:05;80733.00;;;20.50
12007;BMP180;6062;47.294;12.182;2022-07-26T11:34:33;80743.00;;;20.40
12007;BMP180;6062;47.294;12.182;2022-07-26T11:37:03;80733.00;;;20.20
12007;BMP180;6062;47.294;12.182;2022-07-26T11:39:32;80733.00;;;20.10
12007;BMP180;6062;47.294;12.182;2022-07-26T11:42:07;80730.00;;;20.00
12007;BMP180;6062;47.294;12.182;2022-07-26T11:44:34;80727.00;;;20.00
12007;BMP180;6062;47.294;12.182;2022-07-26T11:47:18;80730.00;;;19.90
12007;BMP180;6062;47.294;12.182;2022-07-26T11:49:45;80735.00;;;19.80
12007;BMP180;6062;47.294;12.182;2022-07-26T11:52:12;80731.00;;;19.80
12007;BMP180;6062;47.294;12.182;2022-07-26T11:54:50;80725.00;;;19.90
12007;BMP180;6062;47.294;12.182;2022-07-26T11:57:17;80728.00;;;20.00
12007;BMP180;6062;47.294;12.182;2022-07-26T11:59:46;80734.00;;;20.20
12007;BMP180;6062;47.294;12.182;2022-07-26T12:02:13;80732.00;;;20.40
12007;BMP180;6062;47.294;12.182;2022-07-26T12:04:42;80726.00;;;20.50
12007;BMP180;6062;47.294;12.182;2022-07-26T12:07:14;80732.00;;;20.70
12007;BMP180;6062;47.294;12.182;2022-07-26T12:09:51;80730.00;;;20.80
12007;BMP180;6062;47.294;12.182;2022-07-26T12:12:26;80717.00;;;20.90
12007;BMP180;6062;47.294;12.182;2022-07-26T12:15:04;80723.00;;;21.00
12007;BMP180;6062;47.294;12.182;2022-07-26T12:17:31;80712.00;;;21.10
12007;BMP180;6062;47.294;12.182;2022-07-26T12:20:12;80730.00;;;21.30
12007;BMP180;6062;47.294;12.182;2022-07-26T12:22:38;80729.00;;;21.30
12007;BMP180;6062;47.294;12.182;2022-07-26T12:25:05;80719.00;;;21.40
12007;BMP180;6062;47.294;12.182;2022-07-26T12:27:32;80708.00;;;21.40
12007;BMP180;6062;47.294;12.182;2022-07-26T12:32:33;80710.00;;;21.30
12007;BMP180;6062;47.294;12.182;2022-07-26T12:35:14;80717.00;;;21.30
12007;BMP180;6062;47.294;12.182;2022-07-26T12:40:18;80722.00;;;21.30
12007;BMP180;6062;47.294;12.182;2022-07-26T12:45:33;80706.00;;;21.30
12007;BMP180;6062;47.294;12.182;2022-07-26T12:48:05;80710.00;;;21.30
12007;BMP180;6062;47.294;12.182;2022-07-26T12:50:31;80709.00;;;21.40
12007;BMP180;6062;47.294;12.182;2022-07-26T12:53:06;80708.00;;;21.50
12007;BMP180;6062;47.294;12.182;2022-07-26T12:55:32;80708.00;;;21.50
12007;BMP180;6062;47.294;12.182;2022-07-26T12:57:58;80708.00;;;21.70
12007;BMP180;6062;47.294;12.182;2022-07-26T13:00:25;80708.00;;;21.80
12007;BMP180;6062;47.294;12.182;2022-07-26T13:02:51;80711.00;;;21.90
12007;BMP180;6062;47.294;12.182;2022-07-26T13:05:20;80716.00;;;22.10
12007;BMP180;6062;47.294;12.182;2022-07-26T13:07:46;80713.00;;;22.20
12007;BMP180;6062;47.294;12.182;2022-07-26T13:10:12;80709.00;;;22.40
12007;BMP180;6062;47.294;12.182;2022-07-26T13:12:39;80723.00;;;22.60
12007;BMP180;6062;47.294;12.182;2022-07-26T13:15:06;80722.00;;;22.80
12007;BMP180;6062;47.294;12.182;2022-07-26T13:17:31;80712.00;;;22.90
12007;BMP180;6062;47.294;12.182;2022-07-26T13:19:57;80714.00;;;22.90
12007;BMP180;6062;47.294;12.182;2022-07-26T13:22:23;80712.00;;;23.00
12007;BMP180;6062;47.294;12.182;2022-07-26T13:24:49;80717.00;;;23.00
12007;BMP180;6062;47.294;12.182;2022-07-26T13:27:14;80720.00;;;23.10
12007;BMP180;6062;47.294;12.182;2022-07-26T13:29:41;80709.00;;;23.00
12007;BMP180;6062;47.294;12.182;2022-07-26T13:32:06;80716.00;;;22.70
12007;BMP180;6062;47.294;12.182;2022-07-26T13:34:33;80731.00;;;22.40
12007;BMP180;6062;47.294;12.182;2022-07-26T13:37:00;80734.00;;;22.10
12007;BMP180;6062;47.294;12.182;2022-07-26T13:39:26;80735.00;;;21.80
12007;BMP180;6062;47.294;12.182;2022-07-26T13:41:53;80735.00;;;21.60
12007;BMP180;6062;47.294;12.182;2022-07-26T13:44:19;80736.00;;;21.20
12007;BMP180;6062;47.294;12.182;2022-07-26T13:46:45;80739.00;;;20.80
12007;BMP180;6062;47.294;12.182;2022-07-26T13:49:11;80736.00;;;20.30
12007;BMP180;6062;47.294;12.182;2022-07-26T13:51:37;80736.00;;;20.00
12007;BMP180;6062;47.294;12.182;2022-07-26T13:54:31;80740.00;;;19.70
12007;BMP180;6062;47.294;12.182;2022-07-26T13:56:59;80742.00;;;19.60
12007;BMP180;6062;47.294;12.182;2022-07-26T13:59:25;80740.00;;;19.50
12007;BMP180;6062;47.294;12.182;2022-07-26T14:01:53;80739.00;;;19.50
12007;BMP180;6062;47.294;12.182;2022-07-26T14:04:20;80740.00;;;19.50
12007;BMP180;6062;47.294;12.182;2022-07-26T14:06:46;80746.00;;;19.40
12007;BMP180;6062;47.294;12.182;2022-07-26T14:09:14;80744.00;;;19.30
12007;BMP180;6062;47.294;12.182;2022-07-26T14:11:40;80753.00;;;19.10
12007;BMP180;6062;47.294;12.182;2022-07-26T14:14:07;80755.00;;;18.90
12007;BMP180;6062;47.294;12.182;2022-07-26T14:16:33;80758.00;;;18.60
12007;BMP180;6062;47.294;12.182;2022-07-26T14:19:00;80756.00;;;18.40
12007;BMP180;6062;47.294;12.182;2022-07-26T14:21:31;80752.00;;;18.30
12007;BMP180;6062;47.294;12.182;2022-07-26T14:23:58;80754.00;;;18.20
12007;BMP180;6062;47.294;12.182;2022-07-26T14:26:25;80738.00;;;18.10
12007;BMP180;6062;47.294;12.182;2022-07-26T14:28:52;80740.00;;;18.20
12007;BMP180;6062;47.294;12.182;2022-07-26T14:31:18;80756.00;;;18.30
12007;BMP180;6062;47.294;12.182;2022-07-26T14:33:44;80746.00;;;18.40
12007;BMP180;6062;47.294;12.182;2022-07-26T14:36:10;80738.00;;;18.40
12007;BMP180;6062;47.294;12.182;2022-07-26T14:38:39;80745.00;;;18.50
12007;BMP180;6062;47.294;12.182;2022-07-26T14:41:05;80739.00;;;18.50
12007;BMP180;6062;47.294;12.182;2022-07-26T14:43:32;80742.00;;;18.60
12007;BMP180;6062;47.294;12.182;2022-07-26T14:45:57;80736.00;;;18.60
12007;BMP180;6062;47.294;12.182;2022-07-26T14:48:23;80739.00;;;18.70
12007;BMP180;6062;47.294;12.182;2022-07-26T14:50:49;80734.00;;;18.70
12007;BMP180;6062;47.294;12.182;2022-07-26T14:53:16;80728.00;;;18.80
12007;BMP180;6062;47.294;12.182;2022-07-26T14:55:42;80729.00;;;18.90
12007;BMP180;6062;47.294;12.182;2022-07-26T14:58:08;80731.00;;;19.00
12007;BMP180;6062;47.294;12.182;2022-07-26T15:00:34;80721.00;;;19.10
12007;BMP180;6062;47.294;12.182;2022-07-26T15:03:00;80718.00;;;19.20
12007;BMP180;6062;47.294;12.182;2022-07-26T15:05:26;80707.00;;;19.20
12007;BMP180;6062;47.294;12.182;2022-07-26T15:07:52;80700.00;;;19.40
12007;BMP180;6062;47.294;12.182;2022-07-26T15:10:18;80700.00;;;19.50
12007;BMP180;6062;47.294;12.182;2022-07-26T15:12:55;80712.00;;;19.70
12007;BMP180;6062;47.294;12.182;2022-07-26T15:15:21;80721.00;;;19.90
12007;BMP180;6062;47.294;12.182;2022-07-26T15:17:46;80714.00;;;20.00
12007;BMP180;6062;47.294;12.182;2022-07-26T15:20:12;80725.00;;;20.10
12007;BMP180;6062;47.294;12.182;2022-07-26T15:22:39;80725.00;;;20.20
12007;BMP180;6062;47.294;12.182;2022-07-26T15:25:05;80722.00;;;20.20
12007;BMP180;6062;47.294;12.182;2022-07-26T15:27:31;80718.00;;;20.20
12007;BMP180;6062;47.294;12.182;2022-07-26T15:29:57;80717.00;;;20.10
12007;BMP180;6062;47.294;12.182;2022-07-26T15:32:23;80714.00;;;20.10
12007;BMP180;6062;47.294;12.182;2022-07-26T15:34:49;80722.00;;;20.00
12007;BMP180;6062;47.294;12.182;2022-07-26T15:37:14;80732.00;;;19.90
12007;BMP180;6062;47.294;12.182;2022-07-26T15:39:40;80729.00;;;19.80
12007;BMP180;6062;47.294;12.182;2022-07-26T15:42:06;80730.00;;;19.70
12007;BMP180;6062;47.294;12.182;2022-07-26T15:44:32;80726.00;;;19.60
12007;BMP180;6062;47.294;12.182;2022-07-26T15:46:57;80738.00;;;19.50
12007;BMP180;6062;47.294;12.182;2022-07-26T15:49:23;80742.00;;;19.50
12007;BMP180;6062;47.294;12.182;2022-07-26T15:51:49;80739.00;;;19.40
12007;BMP180;6062;47.294;12.182;2022-07-26T15:54:15;80736.00;;;19.30
12007;BMP180;6062;47.294;12.182;2022-07-26T15:56:42;80740.00;;;19.30
12007;BMP180;6062;47.294;12.182;2022-07-26T15:59:08;80741.00;;;19.20
12007;BMP180;6062;47.294;12.182;2022-07-26T16:01:35;80746.00;;;19.10
12007;BMP180;6062;47.294;12.182;2022-07-26T16:04:02;80745.00;;;19.00
12007;BMP180;6062;47.294;12.182;2022-07-26T16:06:30;80742.00;;;18.90
12007;BMP180;6062;47.294;12.182;2022-07-26T16:08:56;80735.00;;;18.80
12007;BMP180;6062;47.294;12.182;2022-07-26T16:11:22;80730.00;;;18.80
12007;BMP180;6062;47.294;12.182;2022-07-26T16:13:47;80738.00;;;18.70
12007;BMP180;6062;47.294;12.182;2022-07-26T16:16:13;80733.00;;;18.60
12007;BMP180;6062;47.294;12.182;2022-07-26T16:18:39;80742.00;;;18.60
12007;BMP180;6062;47.294;12.182;2022-07-26T16:21:05;80732.00;;;18.50
12007;BMP180;6062;47.294;12.182;2022-07-26T16:23:31;80729.00;;;18.50
12007;BMP180;6062;47.294;12.182;2022-07-26T16:25:57;80725.00;;;18.40
12007;BMP180;6062;47.294;12.182;2022-07-26T16:28:22;80738.00;;;18.30
12007;BMP180;6062;47.294;12.182;2022-07-26T16:30:48;80740.00;;;18.30
12007;BMP180;6062;47.294;12.182;2022-07-26T16:33:14;80737.00;;;18.20
12007;BMP180;6062;47.294;12.182;2022-07-26T16:35:40;80738.00;;;18.20
12007;BMP180;6062;47.294;12.182;2022-07-26T16:38:06;80736.00;;;18.20
12007;BMP180;6062;47.294;12.182;2022-07-26T16:40:32;80731.00;;;18.20
12007;BMP180;6062;47.294;12.182;2022-07-26T16:42:58;80738.00;;;18.20
12007;BMP180;6062;47.294;12.182;2022-07-26T16:45:24;80740.00;;;18.20
12007;BMP180;6062;47.294;12.182;2022-07-26T16:47:50;80746.00;;;18.20
12007;BMP180;6062;47.294;12.182;2022-07-26T16:50:15;80749.00;;;18.20
12007;BMP180;6062;47.294;12.182;2022-07-26T16:52:41;80741.00;;;18.10
12007;BMP180;6062;47.294;12.182;2022-07-26T16:55:08;80751.00;;;18.10
12007;BMP180;6062;47.294;12.182;2022-07-26T16:57:37;80756.00;;;18.00
12007;BMP180;6062;47.294;12.182;2022-07-26T17:00:06;80756.00;;;17.90
12007;BMP180;6062;47.294;12.182;2022-07-26T17:02:33;80754.00;;;17.80
12007;BMP180;6062;47.294;12.182;2022-07-26T17:04:59;80738.00;;;17.60
12007;BMP180;6062;47.294;12.182;2022-07-26T17:07:25;80751.00;;;17.60
12007;BMP180;6062;47.294;12.182;2022-07-26T17:09:51;80753.00;;;17.50
12007;BMP180;6062;47.294;12.182;2022-07-26T17:12:17;80755.00;;;17.40
12007;BMP180;6062;47.294;12.182;2022-07-26T17:14:43;80750.00;;;17.30
12007;BMP180;6062;47.294;12.182;2022-07-26T17:17:09;80753.00;;;17.20
12007;BMP180;6062;47.294;12.182;2022-07-26T17:19:34;80754.00;;;17.20
12007;BMP180;6062;47.294;12.182;2022-07-26T17:22:00;80750.00;;;17.00
12007;BMP180;6062;47.294;12.182;2022-07-26T17:24:25;80762.00;;;16.90
12007;BMP180;6062;47.294;12.182;2022-07-26T17:26:51;80760.00;;;16.90
12007;BMP180;6062;47.294;12.182;2022-07-26T17:29:17;80765.00;;;16.90
12007;BMP180;6062;47.294;12.182;2022-07-26T17:31:43;80761.00;;;16.80
12007;BMP180;6062;47.294;12.182;2022-07-26T17:34:08;80760.00;;;16.70
12007;BMP180;6062;47.294;12.182;2022-07-26T17:36:34;80766.00;;;16.60
12007;BMP180;6062;47.294;12.182;2022-07-26T17:39:00;80763.00;;;16.50
12007;BMP180;6062;47.294;12.182;2022-07-26T17:41:26;80766.00;;;16.40
12007;BMP180;6062;47.294;12.182;2022-07-26T17:43:52;80763.00;;;16.40
12007;BMP180;6062;47.294;12.182;2022-07-26T17:46:19;80763.00;;;16.40
12007;BMP180;6062;47.294;12.182;2022-07-26T17:48:45;80762.00;;;16.50
12007;BMP180;6062;47.294;12.182;2022-07-26T17:51:13;80756.00;;;16.50
12007;BMP180;6062;47.294;12.182;2022-07-26T17:53:39;80756.00;;;16.50
12007;BMP180;6062;47.294;12.182;2022-07-26T17:56:06;80762.00;;;16.60
12007;BMP180;6062;47.294;12.182;2022-07-26T17:58:32;80764.00;;;16.60
12007;BMP180;6062;47.294;12.182;2022-07-26T18:00:58;80764.00;;;16.60
12007;BMP180;6062;47.294;12.182;2022-07-26T18:03:24;80753.00;;;16.60
12007;BMP180;6062;47.294;12.182;2022-07-26T18:05:50;80753.00;;;16.60
12007;BMP180;6062;47.294;12.182;2022-07-26T18:08:16;80751.00;;;16.60
12007;BMP180;6062;47.294;12.182;2022-07-26T18:10:42;80754.00;;;16.60
12007;BMP180;6062;47.294;12.182;2022-07-26T18:13:07;80758.00;;;16.60
12007;BMP180;6062;47.294;12.182;2022-07-26T18:15:33;80745.00;;;16.70
12007;BMP180;6062;47.294;12.182;2022-07-26T18:17:59;80754.00;;;16.70
12007;BMP180;6062;47.294;12.182;2022-07-26T18:20:24;80755.00;;;16.70
12007;BMP180;6062;47.294;12.182;2022-07-26T18:22:50;80748.00;;;16.70
12007;BMP180;6062;47.294;12.182;2022-07-26T18:25:18;80752.00;;;16.70
12007;BMP180;6062;47.294;12.182;2022-07-26T18:27:43;80756.00;;;16.70
12007;BMP180;6062;47.294;12.182;2022-07-26T18:30:09;80763.00;;;16.70
12007;BMP180;6062;47.294;12.182;2022-07-26T18:32:35;80765.00;;;16.70
12007;BMP180;6062;47.294;12.182;2022-07-26T18:35:01;80764.00;;;16.70
12007;BMP180;6062;47.294;12.182;2022-07-26T18:37:27;80761.00;;;16.70
12007;BMP180;6062;47.294;12.182;2022-07-26T18:39:53;80758.00;;;16.80
12007;BMP180;6062;47.294;12.182;2022-07-26T18:42:18;80758.00;;;16.70
12007;BMP180;6062;47.294;12.182;2022-07-26T18:44:44;80749.00;;;16.80
12007;BMP180;6062;47.294;12.182;2022-07-26T18:47:10;80749.00;;;16.80
12007;BMP180;6062;47.294;12.182;2022-07-26T18:49:35;80754.00;;;16.80
12007;BMP180;6062;47.294;12.182;2022-07-26T18:52:02;80754.00;;;16.80
12007;BMP180;6062;47.294;12.182;2022-07-26T18:54:28;80755.00;;;16.80
12007;BMP180;6062;47.294;12.182;2022-07-26T18:56:54;80752.00;;;16.90
12007;BMP180;6062;47.294;12.182;2022-07-26T18:59:20;80750.00;;;16.90
12007;BMP180;6062;47.294;12.182;2022-07-26T19:01:46;80743.00;;;16.90
12007;BMP180;6062;47.294;12.182;2022-07-26T19:04:12;80735.00;;;16.90
12007;BMP180;6062;47.294;12.182;2022-07-26T19:06:37;80738.00;;;16.90
12007;BMP180;6062;47.294;12.182;2022-07-26T19:09:05;80739.00;;;16.90
12007;BMP180;6062;47.294;12.182;2022-07-26T19:11:31;80738.00;;;16.90
12007;BMP180;6062;47.294;12.182;2022-07-26T19:13:58;80746.00;;;16.90
12007;BMP180;6062;47.294;12.182;2022-07-26T19:16:25;80740.00;;;16.90
12007;BMP180;6062;47.294;12.182;2022-07-26T19:18:51;80747.00;;;16.90
12007;BMP180;6062;47.294;12.182;2022-07-26T19:21:17;80757.00;;;16.90
12007;BMP180;6062;47.294;12.182;2022-07-26T19:23:42;80765.00;;;16.90
12007;BMP180;6062;47.294;12.182;2022-07-26T19:26:09;80767.00;;;16.80
12007;BMP180;6062;47.294;12.182;2022-07-26T19:28:34;80769.00;;;16.60
12007;BMP180;6062;47.294;12.182;2022-07-26T19:31:00;80782.00;;;16.50
12007;BMP180;6062;47.294;12.182;2022-07-26T19:33:26;80785.00;;;16.50
12007;BMP180;6062;47.294;12.182;2022-07-26T19:35:53;80779.00;;;16.40
12007;BMP180;6062;47.294;12.182;2022-07-26T19:38:19;80781.00;;;16.50
12007;BMP180;6062;47.294;12.182;2022-07-26T19:40:45;80780.00;;;16.50
12007;BMP180;6062;47.294;12.182;2022-07-26T19:43:11;80778.00;;;16.50
12007;BMP180;6062;47.294;12.182;2022-07-26T19:45:38;80778.00;;;16.40
12007;BMP180;6062;47.294;12.182;2022-07-26T19:48:04;80779.00;;;16.40
12007;BMP180;6062;47.294;12.182;2022-07-26T19:50:29;80776.00;;;16.40
12007;BMP180;6062;47.294;12.182;2022-07-26T19:52:55;80784.00;;;16.40
12007;BMP180;6062;47.294;12.182;2022-07-26T19:55:21;80786.00;;;16.40
12007;BMP180;6062;47.294;12.182;2022-07-26T19:57:47;80776.00;;;16.40
12007;BMP180;6062;47.294;12.182;2022-07-26T20:00:13;80774.00;;;16.40
12007;BMP180;6062;47.294;12.182;2022-07-26T20:02:40;80767.00;;;16.40
12007;BMP180;6062;47.294;12.182;2022-07-26T20:05:09;80758.00;;;16.40
12007;BMP180;6062;47.294;12.182;2022-07-26T20:07:36;80749.00;;;16.50
12007;BMP180;6062;47.294;12.182;2022-07-26T20:10:03;80748.00;;;16.50
12007;BMP180;6062;47.294;12.182;2022-07-26T20:12:29;80750.00;;;16.50
12007;BMP180;6062;47.294;12.182;2022-07-26T20:14:55;80738.00;;;16.50
12007;BMP180;6062;47.294;12.182;2022-07-26T20:17:21;80747.00;;;16.50
12007;BMP180;6062;47.294;12.182;2022-07-26T20:19:47;80759.00;;;16.50
12007;BMP180;6062;47.294;12.182;2022-07-26T20:22:15;80757.00;;;16.50
12007;BMP180;6062;47.294;12.182;2022-07-26T20:24:40;80757.00;;;16.40
12007;BMP180;6062;47.294;12.182;2022-07-26T20:27:07;80751.00;;;16.40
12007;BMP180;6062;47.294;12.182;2022-07-26T20:29:34;80751.00;;;16.30
12007;BMP180;6062;47.294;12.182;2022-07-26T20:32:00;80756.00;;;16.20
12007;BMP180;6062;47.294;12.182;2022-07-26T20:34:25;80760.00;;;16.20
12007;BMP180;6062;47.294;12.182;2022-07-26T20:36:51;80763.00;;;16.10
12007;BMP180;6062;47.294;12.182;2022-07-26T20:39:19;80755.00;;;16.10
12007;BMP180;6062;47.294;12.182;2022-07-26T20:41:45;80757.00;;;16.00
12007;BMP180;6062;47.294;12.182;2022-07-26T20:44:11;80754.00;;;16.00
12007;BMP180;6062;47.294;12.182;2022-07-26T20:46:37;80752.00;;;15.90